Airfield :
LOGIN :

Register | Disclaimer

   EN    FR    IT 

 










Legend :    VFR   Marginal VFR   IFR   Intensive IFR   Very Intensive IFR
Visi :
Ceiling :
>= 8 km
>= 3000ft
5 to 8 km
1000 to 3000 ft
1500m to 5 km
500 to 1000 ft
800 to 1500m
200 to 500 ft
< 800m
< 200 ft
Symbols :   Thunderstorms  Fog  Heavy snow  Heavy precipitations  Wind > 20 kt
SIGMETs :     Misc.  Thunderstorms  Icing  Turbulence  Mountain Waves  Volcanic Ashes







- Airport Elevation : 375 ft
- IATA code : MST


EHBK - Maastricht Aachen

CURRENT METAR :
  • 261655Z AUTO 23013KT 200V280 9999 FEW034 12/02 Q1016 TEMPO 7000 -SHRA FEW040CB

EXPIRED METARs :
  • 261625Z AUTO 24009KT 190V270 9999 NSC 13/04 Q1016 TEMPO 7000 -SHRA FEW040CB
  • 261555Z AUTO 27006KT 200V330 9999 NSC 13/04 Q1017 TEMPO 7000 -SHRA FEW040CB
  • 261525Z AUTO 27008KT 220V320 9999 FEW037CB 12/03 Q1017 TEMPO 7000 -SHRA FEW040CB
  • 261455Z AUTO 25007KT 210V290 9999 NSC 13/05 Q1017 RERA TEMPO 7000 -SHRA FEW040CB
  • 261425Z AUTO 24009KT 200V310 9999 FEW044 13/03 Q1017 TEMPO 7000 -SHRA FEW040CB

TAF AMD TAF EHBK
Valid from the 26 at 14:00 until the 27 at 18:00 UTC


261440Z 2614/2718 25012G22KT 9999 SCT045
TEMPO 2614/2618 7000 -SHRA FEW040CB SCT045
BECMG 2616/2619 26006KT
No reported NOTAMs for that airfield.



MET'MAP, your aeronautical weather chart ! - Copyright ORBIFLY December 2007 - Disclaimer

ORBIFLY MET'MAP TEAM :

Programming & Development : Alexandra Zaïnal
Concept & Development : Baudouin d'Aumeries
Co-Development & Prog : Marc-Olivier Méhu
Technical & hardware support : Manuel Goepfert

Contact : metmap@orbifly.com




SOURCES & CREDITS :

   NOAA